sensor_id;sensor_type;location;lat;lon;timestamp;P1;durP1;ratioP1;P2;durP2;ratioP2
65799;SDS011;52544;48.116;11.660;2023-01-26T00:01:05;33.92;;;9.50;;
65799;SDS011;52544;48.116;11.660;2023-01-26T00:03:32;26.33;;;9.30;;
65799;SDS011;52544;48.116;11.660;2023-01-26T00:06:01;37.28;;;12.35;;
65799;SDS011;52544;48.116;11.660;2023-01-26T00:08:27;52.10;;;16.38;;
65799;SDS011;52544;48.116;11.660;2023-01-26T00:10:53;32.20;;;11.20;;
65799;SDS011;52544;48.116;11.660;2023-01-26T00:13:18;43.65;;;13.52;;
65799;SDS011;52544;48.116;11.660;2023-01-26T00:15:44;30.10;;;10.65;;
65799;SDS011;52544;48.116;11.660;2023-01-26T00:18:09;32.22;;;11.93;;
65799;SDS011;52544;48.116;11.660;2023-01-26T00:20:35;25.20;;;9.20;;
65799;SDS011;52544;48.116;11.660;2023-01-26T00:23:00;25.67;;;9.88;;
65799;SDS011;52544;48.116;11.660;2023-01-26T00:25:27;24.77;;;8.25;;
65799;SDS011;52544;48.116;11.660;2023-01-26T00:27:52;33.50;;;12.18;;
65799;SDS011;52544;48.116;11.660;2023-01-26T00:30:17;37.47;;;12.57;;
65799;SDS011;52544;48.116;11.660;2023-01-26T00:32:43;27.17;;;9.45;;
65799;SDS011;52544;48.116;11.660;2023-01-26T00:35:09;32.95;;;11.38;;
65799;SDS011;52544;48.116;11.660;2023-01-26T00:37:34;39.35;;;11.82;;
65799;SDS011;52544;48.116;11.660;2023-01-26T00:40:00;27.60;;;10.02;;
65799;SDS011;52544;48.116;11.660;2023-01-26T00:42:25;38.35;;;12.90;;
65799;SDS011;52544;48.116;11.660;2023-01-26T00:44:51;25.75;;;9.00;;
65799;SDS011;52544;48.116;11.660;2023-01-26T00:47:17;22.60;;;8.73;;
65799;SDS011;52544;48.116;11.660;2023-01-26T00:49:43;40.30;;;12.95;;
65799;SDS011;52544;48.116;11.660;2023-01-26T00:52:09;66.18;;;21.60;;
65799;SDS011;52544;48.116;11.660;2023-01-26T00:54:36;94.75;;;27.92;;
65799;SDS011;52544;48.116;11.660;2023-01-26T00:57:01;48.05;;;17.48;;
65799;SDS011;52544;48.116;11.660;2023-01-26T00:59:27;20.70;;;8.80;;
65799;SDS011;52544;48.116;11.660;2023-01-26T01:01:53;23.38;;;8.20;;
65799;SDS011;52544;48.116;11.660;2023-01-26T01:04:19;25.40;;;8.85;;
65799;SDS011;52544;48.116;11.660;2023-01-26T01:06:44;21.27;;;7.47;;
65799;SDS011;52544;48.116;11.660;2023-01-26T01:09:10;26.60;;;9.70;;
65799;SDS011;52544;48.116;11.660;2023-01-26T01:11:36;23.02;;;9.60;;
65799;SDS011;52544;48.116;11.660;2023-01-26T01:14:01;24.45;;;9.00;;
65799;SDS011;52544;48.116;11.660;2023-01-26T01:16:27;22.33;;;8.27;;
65799;SDS011;52544;48.116;11.660;2023-01-26T01:18:53;20.85;;;8.68;;
65799;SDS011;52544;48.116;11.660;2023-01-26T01:21:19;22.77;;;9.05;;
65799;SDS011;52544;48.116;11.660;2023-01-26T01:23:46;18.73;;;7.97;;
65799;SDS011;52544;48.116;11.660;2023-01-26T01:26:11;21.98;;;7.90;;
65799;SDS011;52544;48.116;11.660;2023-01-26T01:28:38;19.83;;;7.95;;
65799;SDS011;52544;48.116;11.660;2023-01-26T01:31:08;20.23;;;6.82;;
65799;SDS011;52544;48.116;11.660;2023-01-26T01:33:36;23.45;;;8.15;;
65799;SDS011;52544;48.116;11.660;2023-01-26T01:36:03;17.73;;;7.15;;
65799;SDS011;52544;48.116;11.660;2023-01-26T01:38:30;19.90;;;7.38;;
65799;SDS011;52544;48.116;11.660;2023-01-26T01:40:56;18.67;;;6.72;;
65799;SDS011;52544;48.116;11.660;2023-01-26T01:43:22;21.25;;;7.30;;
65799;SDS011;52544;48.116;11.660;2023-01-26T01:45:49;20.17;;;8.25;;
65799;SDS011;52544;48.116;11.660;2023-01-26T01:51:02;25.75;;;8.70;;
65799;SDS011;52544;48.116;11.660;2023-01-26T01:53:36;21.08;;;7.90;;
65799;SDS011;52544;48.116;11.660;2023-01-26T01:56:04;18.25;;;6.88;;
65799;SDS011;52544;48.116;11.660;2023-01-26T01:58:37;19.30;;;7.72;;
65799;SDS011;52544;48.116;11.660;2023-01-26T02:01:07;20.73;;;7.93;;
65799;SDS011;52544;48.116;11.660;2023-01-26T02:03:33;22.77;;;7.65;;
65799;SDS011;52544;48.116;11.660;2023-01-26T02:06:05;15.90;;;5.85;;
65799;SDS011;52544;48.116;11.660;2023-01-26T02:08:38;17.83;;;7.22;;
65799;SDS011;52544;48.116;11.660;2023-01-26T02:11:11;19.05;;;7.60;;
65799;SDS011;52544;48.116;11.660;2023-01-26T02:13:40;17.48;;;7.28;;
65799;SDS011;52544;48.116;11.660;2023-01-26T02:16:07;18.98;;;7.40;;
65799;SDS011;52544;48.116;11.660;2023-01-26T02:18:33;16.42;;;6.68;;
65799;SDS011;52544;48.116;11.660;2023-01-26T02:20:59;19.02;;;7.68;;
65799;SDS011;52544;48.116;11.660;2023-01-26T02:26:04;20.88;;;7.57;;
65799;SDS011;52544;48.116;11.660;2023-01-26T02:28:30;20.90;;;7.63;;
65799;SDS011;52544;48.116;11.660;2023-01-26T02:30:55;23.27;;;8.45;;
65799;SDS011;52544;48.116;11.660;2023-01-26T02:33:22;21.77;;;8.38;;
65799;SDS011;52544;48.116;11.660;2023-01-26T02:35:49;20.67;;;7.55;;
65799;SDS011;52544;48.116;11.660;2023-01-26T02:38:15;22.92;;;7.70;;
65799;SDS011;52544;48.116;11.660;2023-01-26T02:40:43;18.42;;;7.95;;
65799;SDS011;52544;48.116;11.660;2023-01-26T02:43:14;18.48;;;7.45;;
65799;SDS011;52544;48.116;11.660;2023-01-26T02:45:39;17.05;;;7.50;;
65799;SDS011;52544;48.116;11.660;2023-01-26T02:48:06;22.30;;;8.18;;
65799;SDS011;52544;48.116;11.660;2023-01-26T02:50:32;18.33;;;7.10;;
65799;SDS011;52544;48.116;11.660;2023-01-26T02:52:58;14.10;;;6.15;;
65799;SDS011;52544;48.116;11.660;2023-01-26T02:55:24;14.23;;;6.57;;
65799;SDS011;52544;48.116;11.660;2023-01-26T02:57:53;17.42;;;6.70;;
65799;SDS011;52544;48.116;11.660;2023-01-26T03:00:26;16.95;;;6.72;;
65799;SDS011;52544;48.116;11.660;2023-01-26T03:02:54;20.15;;;7.80;;
65799;SDS011;52544;48.116;11.660;2023-01-26T03:05:21;18.95;;;6.85;;
65799;SDS011;52544;48.116;11.660;2023-01-26T03:07:47;17.50;;;7.93;;
65799;SDS011;52544;48.116;11.660;2023-01-26T03:10:12;21.58;;;7.57;;
65799;SDS011;52544;48.116;11.660;2023-01-26T03:12:40;17.30;;;7.05;;
65799;SDS011;52544;48.116;11.660;2023-01-26T03:15:05;17.77;;;7.10;;
65799;SDS011;52544;48.116;11.660;2023-01-26T03:17:49;17.73;;;7.28;;
65799;SDS011;52544;48.116;11.660;2023-01-26T03:20:15;18.55;;;6.85;;
65799;SDS011;52544;48.116;11.660;2023-01-26T03:22:59;19.35;;;7.18;;
65799;SDS011;52544;48.116;11.660;2023-01-26T03:25:43;16.70;;;7.32;;
65799;SDS011;52544;48.116;11.660;2023-01-26T03:28:27;18.67;;;7.53;;
65799;SDS011;52544;48.116;11.660;2023-01-26T03:30:53;19.80;;;7.18;;
65799;SDS011;52544;48.116;11.660;2023-01-26T03:33:21;19.00;;;7.68;;
65799;SDS011;52544;48.116;11.660;2023-01-26T03:35:46;18.77;;;7.03;;
65799;SDS011;52544;48.116;11.660;2023-01-26T03:38:12;17.52;;;8.10;;
65799;SDS011;52544;48.116;11.660;2023-01-26T03:40:37;25.05;;;7.57;;
65799;SDS011;52544;48.116;11.660;2023-01-26T03:43:21;16.02;;;6.47;;
65799;SDS011;52544;48.116;11.660;2023-01-26T03:46:06;15.23;;;6.43;;
65799;SDS011;52544;48.116;11.660;2023-01-26T03:48:50;14.73;;;6.55;;
65799;SDS011;52544;48.116;11.660;2023-01-26T03:51:35;20.13;;;7.10;;
65799;SDS011;52544;48.116;11.660;2023-01-26T03:54:18;20.60;;;7.30;;
65799;SDS011;52544;48.116;11.660;2023-01-26T03:57:02;18.63;;;7.10;;
65799;SDS011;52544;48.116;11.660;2023-01-26T03:59:28;16.60;;;6.18;;
65799;SDS011;52544;48.116;11.660;2023-01-26T04:02:03;18.10;;;7.50;;
65799;SDS011;52544;48.116;11.660;2023-01-26T04:04:51;19.50;;;7.53;;
65799;SDS011;52544;48.116;11.660;2023-01-26T04:07:35;20.15;;;7.18;;
65799;SDS011;52544;48.116;11.660;2023-01-26T04:10:20;16.70;;;6.78;;
65799;SDS011;52544;48.116;11.660;2023-01-26T04:12:46;19.15;;;7.43;;
65799;SDS011;52544;48.116;11.660;2023-01-26T04:15:31;22.13;;;8.43;;
65799;SDS011;52544;48.116;11.660;2023-01-26T04:18:15;19.58;;;8.25;;
65799;SDS011;52544;48.116;11.660;2023-01-26T04:21:00;18.40;;;7.25;;
65799;SDS011;52544;48.116;11.660;2023-01-26T04:23:45;16.10;;;6.68;;
65799;SDS011;52544;48.116;11.660;2023-01-26T04:26:11;18.45;;;7.53;;
65799;SDS011;52544;48.116;11.660;2023-01-26T04:28:36;16.95;;;6.90;;
65799;SDS011;52544;48.116;11.660;2023-01-26T04:31:02;18.08;;;7.03;;
65799;SDS011;52544;48.116;11.660;2023-01-26T04:33:28;19.17;;;7.00;;
65799;SDS011;52544;48.116;11.660;2023-01-26T04:35:54;20.42;;;7.28;;
65799;SDS011;52544;48.116;11.660;2023-01-26T04:38:19;17.75;;;6.80;;
65799;SDS011;52544;48.116;11.660;2023-01-26T04:40:51;20.17;;;8.02;;
65799;SDS011;52544;48.116;11.660;2023-01-26T04:43:17;17.23;;;7.35;;
65799;SDS011;52544;48.116;11.660;2023-01-26T04:45:42;21.30;;;8.85;;
65799;SDS011;52544;48.116;11.660;2023-01-26T04:48:08;20.08;;;7.57;;
65799;SDS011;52544;48.116;11.660;2023-01-26T04:50:33;19.50;;;7.75;;
65799;SDS011;52544;48.116;11.660;2023-01-26T04:52:58;17.00;;;7.65;;
65799;SDS011;52544;48.116;11.660;2023-01-26T04:55:24;19.67;;;7.30;;
65799;SDS011;52544;48.116;11.660;2023-01-26T04:57:49;18.52;;;7.72;;
65799;SDS011;52544;48.116;11.660;2023-01-26T05:00:15;18.83;;;7.07;;
65799;SDS011;52544;48.116;11.660;2023-01-26T05:02:40;20.13;;;7.63;;
65799;SDS011;52544;48.116;11.660;2023-01-26T05:05:06;19.65;;;6.97;;
65799;SDS011;52544;48.116;11.660;2023-01-26T05:07:31;17.30;;;6.85;;
65799;SDS011;52544;48.116;11.660;2023-01-26T05:09:57;19.98;;;6.90;;
65799;SDS011;52544;48.116;11.660;2023-01-26T05:12:22;15.32;;;6.78;;
65799;SDS011;52544;48.116;11.660;2023-01-26T05:15:01;20.15;;;7.70;;
65799;SDS011;52544;48.116;11.660;2023-01-26T05:17:26;14.20;;;6.70;;
65799;SDS011;52544;48.116;11.660;2023-01-26T05:19:52;17.27;;;6.63;;
65799;SDS011;52544;48.116;11.660;2023-01-26T05:22:17;13.93;;;6.63;;
65799;SDS011;52544;48.116;11.660;2023-01-26T05:24:43;20.23;;;7.95;;
65799;SDS011;52544;48.116;11.660;2023-01-26T05:27:08;15.13;;;6.18;;
65799;SDS011;52544;48.116;11.660;2023-01-26T05:29:45;19.75;;;7.35;;
65799;SDS011;52544;48.116;11.660;2023-01-26T05:32:11;19.17;;;7.35;;
65799;SDS011;52544;48.116;11.660;2023-01-26T05:34:37;19.83;;;7.47;;
65799;SDS011;52544;48.116;11.660;2023-01-26T05:37:02;19.65;;;6.72;;
65799;SDS011;52544;48.116;11.660;2023-01-26T05:39:28;19.33;;;7.03;;
65799;SDS011;52544;48.116;11.660;2023-01-26T05:41:54;17.30;;;7.30;;
65799;SDS011;52544;48.116;11.660;2023-01-26T05:44:21;21.63;;;7.93;;
65799;SDS011;52544;48.116;11.660;2023-01-26T05:46:50;21.33;;;8.27;;
65799;SDS011;52544;48.116;11.660;2023-01-26T05:49:16;22.75;;;8.35;;
65799;SDS011;52544;48.116;11.660;2023-01-26T05:51:41;19.90;;;8.43;;
65799;SDS011;52544;48.116;11.660;2023-01-26T05:54:06;19.83;;;7.13;;
65799;SDS011;52544;48.116;11.660;2023-01-26T05:56:32;21.88;;;7.93;;
65799;SDS011;52544;48.116;11.660;2023-01-26T05:58:57;17.58;;;7.18;;
65799;SDS011;52544;48.116;11.660;2023-01-26T06:01:23;15.48;;;6.40;;
65799;SDS011;52544;48.116;11.660;2023-01-26T06:03:48;17.83;;;5.35;;
65799;SDS011;52544;48.116;11.660;2023-01-26T06:06:14;13.88;;;5.78;;
65799;SDS011;52544;48.116;11.660;2023-01-26T06:08:39;12.07;;;5.03;;
65799;SDS011;52544;48.116;11.660;2023-01-26T06:11:04;8.48;;;4.32;;
65799;SDS011;52544;48.116;11.660;2023-01-26T06:13:30;13.43;;;5.35;;
65799;SDS011;52544;48.116;11.660;2023-01-26T06:15:55;12.50;;;5.25;;
65799;SDS011;52544;48.116;11.660;2023-01-26T06:18:21;10.32;;;4.25;;
65799;SDS011;52544;48.116;11.660;2023-01-26T06:20:46;9.65;;;4.38;;
65799;SDS011;52544;48.116;11.660;2023-01-26T06:23:11;10.07;;;4.90;;
65799;SDS011;52544;48.116;11.660;2023-01-26T06:25:37;11.13;;;4.72;;
65799;SDS011;52544;48.116;11.660;2023-01-26T06:28:03;10.55;;;4.63;;
65799;SDS011;52544;48.116;11.660;2023-01-26T06:30:29;8.93;;;4.47;;
65799;SDS011;52544;48.116;11.660;2023-01-26T06:32:54;15.50;;;4.90;;
65799;SDS011;52544;48.116;11.660;2023-01-26T06:35:20;13.10;;;4.70;;
65799;SDS011;52544;48.116;11.660;2023-01-26T06:37:49;13.40;;;4.82;;
65799;SDS011;52544;48.116;11.660;2023-01-26T06:40:15;13.15;;;5.45;;
65799;SDS011;52544;48.116;11.660;2023-01-26T06:42:47;15.85;;;6.75;;
65799;SDS011;52544;48.116;11.660;2023-01-26T06:45:14;17.17;;;6.72;;
65799;SDS011;52544;48.116;11.660;2023-01-26T06:47:43;14.13;;;7.13;;
65799;SDS011;52544;48.116;11.660;2023-01-26T06:50:13;17.20;;;6.85;;
65799;SDS011;52544;48.116;11.660;2023-01-26T06:52:41;19.50;;;6.60;;
65799;SDS011;52544;48.116;11.660;2023-01-26T06:55:14;17.42;;;6.50;;
65799;SDS011;52544;48.116;11.660;2023-01-26T06:57:43;20.95;;;6.85;;
65799;SDS011;52544;48.116;11.660;2023-01-26T07:00:08;20.08;;;7.80;;
65799;SDS011;52544;48.116;11.660;2023-01-26T07:02:35;17.95;;;7.38;;
65799;SDS011;52544;48.116;11.660;2023-01-26T07:05:01;19.42;;;7.50;;
65799;SDS011;52544;48.116;11.660;2023-01-26T07:07:27;19.90;;;7.22;;
65799;SDS011;52544;48.116;11.660;2023-01-26T07:09:53;20.55;;;7.63;;
65799;SDS011;52544;48.116;11.660;2023-01-26T07:12:18;18.63;;;7.32;;
65799;SDS011;52544;48.116;11.660;2023-01-26T07:14:44;22.58;;;8.35;;
65799;SDS011;52544;48.116;11.660;2023-01-26T07:17:09;22.08;;;8.60;;
65799;SDS011;52544;48.116;11.660;2023-01-26T07:19:34;23.05;;;9.30;;
65799;SDS011;52544;48.116;11.660;2023-01-26T07:22:01;23.98;;;8.32;;
65799;SDS011;52544;48.116;11.660;2023-01-26T07:24:27;20.60;;;7.53;;
65799;SDS011;52544;48.116;11.660;2023-01-26T07:26:52;14.18;;;6.30;;
65799;SDS011;52544;48.116;11.660;2023-01-26T07:29:18;17.33;;;6.45;;
65799;SDS011;52544;48.116;11.660;2023-01-26T07:31:43;15.95;;;6.43;;
65799;SDS011;52544;48.116;11.660;2023-01-26T07:34:09;19.33;;;7.43;;
65799;SDS011;52544;48.116;11.660;2023-01-26T07:36:35;14.35;;;6.43;;
65799;SDS011;52544;48.116;11.660;2023-01-26T07:39:01;15.73;;;6.72;;
65799;SDS011;52544;48.116;11.660;2023-01-26T07:41:26;20.30;;;7.32;;
65799;SDS011;52544;48.116;11.660;2023-01-26T07:43:51;21.35;;;8.27;;
65799;SDS011;52544;48.116;11.660;2023-01-26T07:46:17;17.55;;;7.60;;
65799;SDS011;52544;48.116;11.660;2023-01-26T07:48:42;19.67;;;6.93;;
65799;SDS011;52544;48.116;11.660;2023-01-26T07:51:07;22.33;;;7.68;;
65799;SDS011;52544;48.116;11.660;2023-01-26T07:53:35;20.83;;;7.82;;
65799;SDS011;52544;48.116;11.660;2023-01-26T07:56:11;16.90;;;7.40;;
65799;SDS011;52544;48.116;11.660;2023-01-26T07:58:38;23.05;;;8.38;;
65799;SDS011;52544;48.116;11.660;2023-01-26T08:01:11;13.98;;;6.43;;
65799;SDS011;52544;48.116;11.660;2023-01-26T08:03:38;17.58;;;6.82;;
65799;SDS011;52544;48.116;11.660;2023-01-26T08:06:03;22.60;;;8.35;;
65799;SDS011;52544;48.116;11.660;2023-01-26T08:08:29;16.80;;;7.05;;
65799;SDS011;52544;48.116;11.660;2023-01-26T08:10:55;13.82;;;6.95;;
65799;SDS011;52544;48.116;11.660;2023-01-26T08:13:22;19.13;;;6.68;;
65799;SDS011;52544;48.116;11.660;2023-01-26T08:15:47;17.48;;;7.32;;
65799;SDS011;52544;48.116;11.660;2023-01-26T08:18:13;22.83;;;7.55;;
65799;SDS011;52544;48.116;11.660;2023-01-26T08:20:38;16.65;;;6.88;;
65799;SDS011;52544;48.116;11.660;2023-01-26T08:23:04;16.25;;;6.85;;
65799;SDS011;52544;48.116;11.660;2023-01-26T08:25:29;14.85;;;6.57;;
65799;SDS011;52544;48.116;11.660;2023-01-26T08:27:56;16.90;;;7.15;;
65799;SDS011;52544;48.116;11.660;2023-01-26T08:30:22;19.48;;;7.22;;
65799;SDS011;52544;48.116;11.660;2023-01-26T08:32:47;14.55;;;6.43;;
65799;SDS011;52544;48.116;11.660;2023-01-26T08:35:13;17.05;;;6.75;;
65799;SDS011;52544;48.116;11.660;2023-01-26T08:37:38;18.08;;;6.95;;
65799;SDS011;52544;48.116;11.660;2023-01-26T08:40:04;18.73;;;7.18;;
65799;SDS011;52544;48.116;11.660;2023-01-26T08:42:30;17.52;;;6.70;;
65799;SDS011;52544;48.116;11.660;2023-01-26T08:44:56;17.42;;;7.20;;
65799;SDS011;52544;48.116;11.660;2023-01-26T08:47:21;20.50;;;7.03;;
65799;SDS011;52544;48.116;11.660;2023-01-26T08:49:47;17.02;;;7.47;;
65799;SDS011;52544;48.116;11.660;2023-01-26T08:52:12;13.18;;;6.35;;
65799;SDS011;52544;48.116;11.660;2023-01-26T08:54:38;17.77;;;7.28;;
65799;SDS011;52544;48.116;11.660;2023-01-26T08:57:03;17.15;;;7.28;;
65799;SDS011;52544;48.116;11.660;2023-01-26T08:59:28;11.95;;;5.53;;
65799;SDS011;52544;48.116;11.660;2023-01-26T09:01:54;17.15;;;6.53;;
65799;SDS011;52544;48.116;11.660;2023-01-26T09:04:19;19.17;;;6.80;;
65799;SDS011;52544;48.116;11.660;2023-01-26T09:06:45;14.18;;;5.90;;
65799;SDS011;52544;48.116;11.660;2023-01-26T09:09:10;18.65;;;6.68;;
65799;SDS011;52544;48.116;11.660;2023-01-26T09:11:37;15.30;;;6.63;;
65799;SDS011;52544;48.116;11.660;2023-01-26T09:14:03;18.48;;;6.30;;
65799;SDS011;52544;48.116;11.660;2023-01-26T09:16:29;15.27;;;6.55;;
65799;SDS011;52544;48.116;11.660;2023-01-26T09:18:54;15.75;;;6.75;;
65799;SDS011;52544;48.116;11.660;2023-01-26T09:21:20;16.17;;;7.05;;
65799;SDS011;52544;48.116;11.660;2023-01-26T09:23:48;13.23;;;6.15;;
65799;SDS011;52544;48.116;11.660;2023-01-26T09:26:13;14.38;;;4.95;;
65799;SDS011;52544;48.116;11.660;2023-01-26T09:28:39;10.52;;;5.07;;
65799;SDS011;52544;48.116;11.660;2023-01-26T09:31:05;13.82;;;5.57;;
65799;SDS011;52544;48.116;11.660;2023-01-26T09:33:34;12.90;;;5.43;;
65799;SDS011;52544;48.116;11.660;2023-01-26T09:36:01;11.50;;;5.20;;
65799;SDS011;52544;48.116;11.660;2023-01-26T09:38:31;13.40;;;5.32;;
65799;SDS011;52544;48.116;11.660;2023-01-26T09:46:06;15.60;;;6.40;;
65799;SDS011;52544;48.116;11.660;2023-01-26T09:49:23;16.75;;;6.25;;
65799;SDS011;52544;48.116;11.660;2023-01-26T09:54:30;12.82;;;5.20;;
65799;SDS011;52544;48.116;11.660;2023-01-26T09:57:01;17.48;;;7.80;;
65799;SDS011;52544;48.116;11.660;2023-01-26T09:59:45;15.73;;;7.07;;
65799;SDS011;52544;48.116;11.660;2023-01-26T10:02:17;18.70;;;7.22;;
65799;SDS011;52544;48.116;11.660;2023-01-26T10:04:49;19.27;;;7.43;;
65799;SDS011;52544;48.116;11.660;2023-01-26T10:07:19;18.77;;;7.43;;
65799;SDS011;52544;48.116;11.660;2023-01-26T10:09:46;21.17;;;7.13;;
65799;SDS011;52544;48.116;11.660;2023-01-26T10:15:14;18.80;;;7.35;;
65799;SDS011;52544;48.116;11.660;2023-01-26T10:17:50;20.58;;;7.88;;
65799;SDS011;52544;48.116;11.660;2023-01-26T10:20:23;18.58;;;7.72;;
65799;SDS011;52544;48.116;11.660;2023-01-26T10:23:05;18.52;;;7.35;;
65799;SDS011;52544;48.116;11.660;2023-01-26T10:25:38;15.35;;;7.20;;
65799;SDS011;52544;48.116;11.660;2023-01-26T10:28:14;17.73;;;6.72;;
65799;SDS011;52544;48.116;11.660;2023-01-26T10:30:43;21.00;;;7.80;;
65799;SDS011;52544;48.116;11.660;2023-01-26T10:33:23;17.10;;;7.22;;
65799;SDS011;52544;48.116;11.660;2023-01-26T10:35:49;20.33;;;8.05;;
65799;SDS011;52544;48.116;11.660;2023-01-26T10:38:27;21.30;;;8.30;;
65799;SDS011;52544;48.116;11.660;2023-01-26T10:41:04;18.15;;;6.85;;
65799;SDS011;52544;48.116;11.660;2023-01-26T10:43:33;22.35;;;8.48;;
65799;SDS011;52544;48.116;11.660;2023-01-26T10:46:04;17.83;;;7.47;;
65799;SDS011;52544;48.116;11.660;2023-01-26T10:48:29;17.90;;;7.07;;
65799;SDS011;52544;48.116;11.660;2023-01-26T10:50:55;20.52;;;8.35;;
65799;SDS011;52544;48.116;11.660;2023-01-26T10:53:38;21.38;;;7.40;;
65799;SDS011;52544;48.116;11.660;2023-01-26T10:56:05;23.05;;;8.38;;
65799;SDS011;52544;48.116;11.660;2023-01-26T10:58:42;20.77;;;7.85;;
65799;SDS011;52544;48.116;11.660;2023-01-26T11:01:11;19.88;;;8.70;;
65799;SDS011;52544;48.116;11.660;2023-01-26T11:03:40;19.23;;;7.88;;
65799;SDS011;52544;48.116;11.660;2023-01-26T11:06:11;20.58;;;7.78;;
65799;SDS011;52544;48.116;11.660;2023-01-26T11:08:39;17.40;;;7.03;;
65799;SDS011;52544;48.116;11.660;2023-01-26T11:11:06;19.55;;;7.90;;
65799;SDS011;52544;48.116;11.660;2023-01-26T11:13:45;24.05;;;8.75;;
65799;SDS011;52544;48.116;11.660;2023-01-26T11:16:13;18.15;;;7.65;;
65799;SDS011;52544;48.116;11.660;2023-01-26T11:18:57;21.60;;;8.95;;
65799;SDS011;52544;48.116;11.660;2023-01-26T11:21:27;22.10;;;8.13;;
65799;SDS011;52544;48.116;11.660;2023-01-26T11:26:47;23.83;;;8.18;;
65799;SDS011;52544;48.116;11.660;2023-01-26T11:29:40;25.75;;;8.65;;
65799;SDS011;52544;48.116;11.660;2023-01-26T11:43:13;21.08;;;8.10;;
65799;SDS011;52544;48.116;11.660;2023-01-26T11:48:43;19.50;;;7.28;;
65799;SDS011;52544;48.116;11.660;2023-01-26T11:51:25;19.05;;;7.63;;
65799;SDS011;52544;48.116;11.660;2023-01-26T11:54:10;20.98;;;8.32;;
65799;SDS011;52544;48.116;11.660;2023-01-26T11:56:48;19.48;;;8.05;;
65799;SDS011;52544;48.116;11.660;2023-01-26T11:59:20;20.77;;;8.23;;
65799;SDS011;52544;48.116;11.660;2023-01-26T12:01:59;17.67;;;7.30;;
65799;SDS011;52544;48.116;11.660;2023-01-26T12:04:29;20.30;;;8.45;;
65799;SDS011;52544;48.116;11.660;2023-01-26T12:07:46;20.23;;;7.55;;
65799;SDS011;52544;48.116;11.660;2023-01-26T12:09:51;23.10;;;7.75;;
65799;SDS011;52544;48.116;11.660;2023-01-26T12:18:13;22.73;;;8.93;;
65799;SDS011;52544;48.116;11.660;2023-01-26T12:20:57;20.65;;;8.30;;
65799;SDS011;52544;48.116;11.660;2023-01-26T12:23:32;21.00;;;8.00;;
65799;SDS011;52544;48.116;11.660;2023-01-26T12:26:09;20.13;;;7.47;;
65799;SDS011;52544;48.116;11.660;2023-01-26T12:31:17;21.42;;;8.15;;
65799;SDS011;52544;48.116;11.660;2023-01-26T12:33:51;21.63;;;7.97;;
65799;SDS011;52544;48.116;11.660;2023-01-26T12:39:10;17.60;;;7.85;;
65799;SDS011;52544;48.116;11.660;2023-01-26T12:44:46;19.55;;;7.20;;
65799;SDS011;52544;48.116;11.660;2023-01-26T12:47:38;23.10;;;8.55;;
65799;SDS011;52544;48.116;11.660;2023-01-26T12:50:15;17.70;;;6.32;;
65799;SDS011;52544;48.116;11.660;2023-01-26T12:55:21;16.33;;;7.10;;
65799;SDS011;52544;48.116;11.660;2023-01-26T12:57:53;18.73;;;7.20;;
65799;SDS011;52544;48.116;11.660;2023-01-26T13:00:27;18.67;;;7.13;;
65799;SDS011;52544;48.116;11.660;2023-01-26T13:02:59;17.08;;;6.40;;
65799;SDS011;52544;48.116;11.660;2023-01-26T13:05:58;19.98;;;7.25;;
65799;SDS011;52544;48.116;11.660;2023-01-26T13:11:02;20.27;;;7.65;;
65799;SDS011;52544;48.116;11.660;2023-01-26T13:13:31;24.02;;;8.15;;
65799;SDS011;52544;48.116;11.660;2023-01-26T13:18:50;20.55;;;6.93;;
65799;SDS011;52544;48.116;11.660;2023-01-26T13:21:40;18.67;;;7.28;;
65799;SDS011;52544;48.116;11.660;2023-01-26T13:32:01;19.48;;;7.68;;
65799;SDS011;52544;48.116;11.660;2023-01-26T13:34:47;22.88;;;9.00;;
65799;SDS011;52544;48.116;11.660;2023-01-26T13:37:29;20.98;;;8.30;;
65799;SDS011;52544;48.116;11.660;2023-01-26T13:40:48;26.92;;;8.30;;
65799;SDS011;52544;48.116;11.660;2023-01-26T13:43:12;17.95;;;7.82;;
65799;SDS011;52544;48.116;11.660;2023-01-26T13:45:55;20.80;;;7.95;;
65799;SDS011;52544;48.116;11.660;2023-01-26T13:48:31;19.15;;;7.15;;
65799;SDS011;52544;48.116;11.660;2023-01-26T13:51:04;20.23;;;7.95;;
65799;SDS011;52544;48.116;11.660;2023-01-26T13:56:02;22.90;;;8.95;;
65799;SDS011;52544;48.116;11.660;2023-01-26T13:58:30;20.73;;;8.20;;
65799;SDS011;52544;48.116;11.660;2023-01-26T14:00:57;23.42;;;8.65;;
65799;SDS011;52544;48.116;11.660;2023-01-26T14:03:29;21.02;;;8.00;;
65799;SDS011;52544;48.116;11.660;2023-01-26T14:05:56;25.10;;;8.63;;
65799;SDS011;52544;48.116;11.660;2023-01-26T14:08:26;17.33;;;7.57;;
65799;SDS011;52544;48.116;11.660;2023-01-26T14:10:52;21.75;;;8.10;;
65799;SDS011;52544;48.116;11.660;2023-01-26T14:13:19;18.77;;;7.60;;
65799;SDS011;52544;48.116;11.660;2023-01-26T14:15:55;20.58;;;7.07;;
65799;SDS011;52544;48.116;11.660;2023-01-26T14:18:23;21.10;;;8.65;;
65799;SDS011;52544;48.116;11.660;2023-01-26T14:20:48;25.15;;;8.73;;
65799;SDS011;52544;48.116;11.660;2023-01-26T14:23:15;23.17;;;8.20;;
65799;SDS011;52544;48.116;11.660;2023-01-26T14:25:59;20.70;;;8.02;;
65799;SDS011;52544;48.116;11.660;2023-01-26T14:28:33;24.83;;;8.13;;
65799;SDS011;52544;48.116;11.660;2023-01-26T14:31:13;23.50;;;8.00;;
65799;SDS011;52544;48.116;11.660;2023-01-26T14:33:56;20.10;;;7.82;;
65799;SDS011;52544;48.116;11.660;2023-01-26T14:36:24;21.10;;;7.40;;
65799;SDS011;52544;48.116;11.660;2023-01-26T14:38:58;23.33;;;8.98;;
65799;SDS011;52544;48.116;11.660;2023-01-26T14:41:29;24.00;;;8.35;;
65799;SDS011;52544;48.116;11.660;2023-01-26T14:43:56;27.85;;;9.15;;
65799;SDS011;52544;48.116;11.660;2023-01-26T14:49:03;25.30;;;8.55;;
65799;SDS011;52544;48.116;11.660;2023-01-26T14:51:33;22.40;;;7.40;;
65799;SDS011;52544;48.116;11.660;2023-01-26T14:54:02;19.08;;;7.28;;
65799;SDS011;52544;48.116;11.660;2023-01-26T14:56:37;22.67;;;9.05;;
65799;SDS011;52544;48.116;11.660;2023-01-26T14:59:05;19.50;;;8.15;;
65799;SDS011;52544;48.116;11.660;2023-01-26T15:01:32;22.00;;;8.13;;
65799;SDS011;52544;48.116;11.660;2023-01-26T15:04:02;18.35;;;7.35;;
65799;SDS011;52544;48.116;11.660;2023-01-26T15:06:30;20.92;;;7.45;;
65799;SDS011;52544;48.116;11.660;2023-01-26T15:11:27;17.98;;;6.68;;
65799;SDS011;52544;48.116;11.660;2023-01-26T15:15:15;18.45;;;6.57;;
65799;SDS011;52544;48.116;11.660;2023-01-26T15:17:26;20.25;;;7.90;;
65799;SDS011;52544;48.116;11.660;2023-01-26T15:19:51;19.90;;;7.03;;
65799;SDS011;52544;48.116;11.660;2023-01-26T15:22:17;20.58;;;7.88;;
65799;SDS011;52544;48.116;11.660;2023-01-26T15:24:46;22.50;;;7.60;;
65799;SDS011;52544;48.116;11.660;2023-01-26T15:27:23;18.95;;;7.65;;
65799;SDS011;52544;48.116;11.660;2023-01-26T15:29:55;16.35;;;7.07;;
65799;SDS011;52544;48.116;11.660;2023-01-26T15:32:28;23.00;;;7.35;;
65799;SDS011;52544;48.116;11.660;2023-01-26T15:37:41;18.13;;;7.35;;
65799;SDS011;52544;48.116;11.660;2023-01-26T15:40:06;27.85;;;7.82;;
65799;SDS011;52544;48.116;11.660;2023-01-26T15:42:33;18.65;;;8.20;;
65799;SDS011;52544;48.116;11.660;2023-01-26T15:44:58;21.52;;;8.57;;
65799;SDS011;52544;48.116;11.660;2023-01-26T15:47:23;20.13;;;7.60;;
65799;SDS011;52544;48.116;11.660;2023-01-26T15:49:49;19.73;;;7.70;;